Time;durP1;ratioP1;P1;durP2;ratioP2;P2;SDS_P1;SDS_P2;PMS_P1;PMS_P2;Temp;Humidity;BMP_temperature;BMP_pressure;BME280_temperature;BME280_humidity;BME280_pressure;Samples;Min_cycle;Max_cycle;Signal;HPM_P1;HPM_P2
2022/12/03 00:01:52;;;;;;;6.40;2.47;;;4.40;99.90;;;;;;10150385;28;20036;-59
2022/12/03 00:06:42;;;;;;;6.03;3.35;;;4.40;99.90;;;;;;10142915;28;20037;-60
2022/12/03 00:11:33;;;;;;;3.95;2.38;;;4.30;99.90;;;;;;10150143;28;20020;-61
2022/12/03 00:16:24;;;;;;;4.43;2.53;;;4.40;99.90;;;;;;10142127;28;20029;-58
2022/12/03 00:21:14;;;;;;;5.30;2.22;;;4.50;99.90;;;;;;10141373;28;20429;-59
2022/12/03 00:26:05;;;;;;;5.72;2.63;;;4.40;99.90;;;;;;10145793;28;20032;-59
2022/12/03 00:30:56;;;;;;;5.07;2.92;;;4.40;99.90;;;;;;10141297;28;20032;-60
2022/12/03 00:35:46;;;;;;;4.70;2.42;;;4.40;99.90;;;;;;10143059;28;20517;-59
2022/12/03 00:40:37;;;;;;;7.68;3.22;;;4.40;99.90;;;;;;10141244;28;20021;-60
2022/12/03 00:45:27;;;;;;;5.90;2.95;;;4.50;99.90;;;;;;10144571;28;20665;-58
2022/12/03 00:50:18;;;;;;;7.20;3.20;;;4.40;99.90;;;;;;10141949;28;20023;-60
2022/12/03 00:55:09;;;;;;;6.60;2.65;;;4.40;99.90;;;;;;10140715;28;20045;-60
2022/12/03 00:59:59;;;;;;;7.82;3.20;;;4.40;99.90;;;;;;10147684;28;20494;-59
2022/12/03 01:04:50;;;;;;;6.78;3.00;;;4.40;99.90;;;;;;10139422;28;20048;-60
2022/12/03 01:09:41;;;;;;;7.78;3.58;;;4.50;99.90;;;;;;10142006;28;20032;-59
2022/12/03 01:14:32;;;;;;;4.68;2.58;;;4.40;99.90;;;;;;10139057;28;20486;-58
2022/12/03 01:19:23;;;;;;;7.28;3.08;;;4.40;99.90;;;;;;10139668;28;20083;-58
2022/12/03 01:24:15;;;;;;;8.25;2.90;;;4.50;99.90;;;;;;10144387;28;20530;-59
2022/12/03 01:29:05;;;;;;;6.55;2.90;;;4.40;99.90;;;;;;10121163;28;20393;-60
2022/12/03 01:33:56;;;;;;;6.47;2.85;;;4.40;99.90;;;;;;10139342;28;20036;-59
2022/12/03 01:38:47;;;;;;;7.72;2.88;;;4.40;99.90;;;;;;10139125;28;20073;-58
2022/12/03 01:43:38;;;;;;;4.38;2.65;;;4.40;99.90;;;;;;10138448;28;20033;-60
2022/12/03 01:48:33;;;;;;;7.43;3.67;;;4.40;99.90;;;;;;10142457;28;20203;-59
2022/12/03 01:53:24;;;;;;;5.97;2.77;;;4.30;99.90;;;;;;10136566;28;20060;-60
2022/12/03 01:58:16;;;;;;;5.47;3.05;;;4.30;99.90;;;;;;10138035;28;20052;-58
2022/12/03 02:03:14;;;;;;;6.05;2.40;;;4.30;99.90;;;;;;10138516;28;20049;-59
2022/12/03 02:08:27;;;;;;;4.93;3.00;;;4.30;99.90;;;;;;10139668;28;20590;-59
2022/12/03 02:13:19;;;;;;;5.18;2.88;;;4.30;99.90;;;;;;10140664;28;20033;-58
2022/12/03 02:18:09;;;;;;;5.70;3.03;;;4.30;99.90;;;;;;10137668;28;20024;-59
2022/12/03 02:23:15;;;;;;;6.00;3.58;;;4.30;99.90;;;;;;10137737;28;20034;-59
2022/12/03 02:28:07;;;;;;;4.28;2.88;;;4.40;99.90;;;;;;10137828;28;20412;-61
2022/12/03 02:32:58;;;;;;;6.40;3.38;;;4.40;99.90;;;;;;10140913;28;20214;-60
2022/12/03 02:37:53;;;;;;;6.95;2.75;;;4.40;99.90;;;;;;10137456;28;20159;-61
2022/12/03 02:42:44;;;;;;;7.65;3.03;;;4.40;99.90;;;;;;10137018;28;20029;-61
2022/12/03 02:47:48;;;;;;;8.88;3.75;;;4.40;99.90;;;;;;10137174;28;20435;-60
2022/12/03 02:52:39;;;;;;;7.75;3.58;;;4.40;99.90;;;;;;10118906;28;20060;-59
2022/12/03 02:57:31;;;;;;;8.48;3.45;;;4.50;99.90;;;;;;10134324;28;20048;-60
2022/12/03 03:02:21;;;;;;;6.40;3.42;;;4.50;99.90;;;;;;10132364;28;20091;-59
2022/12/03 03:07:12;;;;;;;8.05;3.85;;;4.60;99.90;;;;;;10105834;28;20033;-60
2022/12/03 03:12:03;;;;;;;5.18;3.08;;;4.60;99.90;;;;;;10123773;28;20047;-59
2022/12/03 03:16:57;;;;;;;5.60;3.15;;;4.50;99.90;;;;;;10135011;28;20327;-61
2022/12/03 03:21:47;;;;;;;8.10;3.38;;;4.50;99.90;;;;;;10136386;28;20041;-60
2022/12/03 03:26:38;;;;;;;4.55;3.05;;;4.50;99.90;;;;;;10140536;28;20427;-60
2022/12/03 03:31:28;;;;;;;10.88;4.25;;;4.50;99.90;;;;;;10136000;28;20029;-59
2022/12/03 03:36:19;;;;;;;6.75;4.20;;;4.50;99.90;;;;;;10136263;28;20066;-59
2022/12/03 03:41:11;;;;;;;10.70;3.95;;;4.50;99.90;;;;;;10138885;28;20025;-60
2022/12/03 03:46:04;;;;;;;7.53;4.28;;;4.60;99.90;;;;;;10145650;28;20115;-60
2022/12/03 03:50:55;;;;;;;9.88;3.92;;;4.60;99.90;;;;;;10136201;28;20052;-60
2022/12/03 03:55:46;;;;;;;7.78;3.90;;;4.60;99.90;;;;;;10136033;28;20066;-59
2022/12/03 04:00:37;;;;;;;7.18;4.15;;;4.70;99.90;;;;;;10135151;28;20474;-61
2022/12/03 04:05:28;;;;;;;7.10;3.63;;;4.70;99.90;;;;;;10134736;28;20040;-59
2022/12/03 04:15:28;;;;;;;8.27;4.30;;;4.90;99.90;;;;;;10144100;28;20035;-59
2022/12/03 04:20:18;;;;;;;9.15;4.38;;;4.90;99.90;;;;;;10141815;28;20120;-58
2022/12/03 04:30:19;;;;;;;5.03;2.95;;;4.80;99.90;;;;;;10153403;28;20387;-58
2022/12/03 04:45:27;;;;;;;7.45;3.80;;;4.70;99.90;;;;;;10141576;28;20039;-60
2022/12/03 04:50:18;;;;;;;8.07;4.03;;;4.70;99.90;;;;;;10138808;28;20036;-61
2022/12/03 04:55:09;;;;;;;6.13;4.00;;;4.70;99.90;;;;;;10148226;28;20126;-59
2022/12/03 04:59:59;;;;;;;8.93;3.80;;;4.70;99.90;;;;;;10141984;28;20345;-60
2022/12/03 05:04:50;;;;;;;10.05;5.03;;;4.70;99.90;;;;;;10141714;28;20040;-59
2022/12/03 05:09:41;;;;;;;9.95;4.80;;;4.60;99.90;;;;;;10144908;28;20415;-59
2022/12/03 05:14:31;;;;;;;9.43;4.35;;;4.60;99.90;;;;;;10140377;28;20525;-60
2022/12/03 05:20:40;;;;;;;9.60;4.22;;;4.50;99.90;;;;;;10139249;28;20022;-59
2022/12/03 05:24:32;;;;;;;10.00;4.50;;;4.50;99.90;;;;;;10144223;28;20039;-62
2022/12/03 05:29:23;;;;;;;8.57;5.18;;;4.50;99.90;;;;;;10138894;28;20467;-61
2022/12/03 05:34:14;;;;;;;9.40;4.72;;;4.60;99.90;;;;;;10146729;28;20044;-61
2022/12/03 05:39:04;;;;;;;10.80;5.22;;;4.60;99.90;;;;;;10143353;28;20028;-60
2022/12/03 05:43:55;;;;;;;9.93;4.07;;;4.60;99.90;;;;;;10143922;28;20127;-61
2022/12/03 05:48:46;;;;;;;8.57;4.15;;;4.60;99.90;;;;;;10137639;28;20025;-60
2022/12/03 05:53:36;;;;;;;9.55;5.00;;;4.60;99.90;;;;;;10136445;28;20078;-59
2022/12/03 05:58:27;;;;;;;9.45;4.93;;;4.50;99.90;;;;;;10138602;28;20519;-60
2022/12/03 06:03:18;;;;;;;9.13;4.45;;;4.60;99.90;;;;;;10137373;28;20027;-59
2022/12/03 06:08:08;;;;;;;9.93;4.57;;;4.50;99.90;;;;;;10135328;28;20494;-60
2022/12/03 06:12:59;;;;;;;8.68;5.25;;;4.50;99.90;;;;;;10136704;28;20077;-59
2022/12/03 06:17:50;;;;;;;8.38;4.70;;;4.50;99.90;;;;;;10139642;28;20046;-60
2022/12/03 06:22:41;;;;;;;9.55;4.47;;;4.60;99.90;;;;;;10136549;28;20029;-58
2022/12/03 06:27:31;;;;;;;10.23;5.57;;;4.60;99.90;;;;;;10134636;28;20032;-59
2022/12/03 06:32:22;;;;;;;11.05;4.65;;;4.70;99.90;;;;;;10136924;28;20021;-59
2022/12/03 06:37:13;;;;;;;8.82;4.93;;;4.70;99.90;;;;;;10135800;28;21369;-59
2022/12/03 06:42:04;;;;;;;9.45;5.25;;;4.60;99.90;;;;;;10136816;28;20067;-59
2022/12/03 06:46:54;;;;;;;11.93;5.70;;;4.70;99.90;;;;;;10142583;28;20047;-62
2022/12/03 06:51:45;;;;;;;10.30;5.15;;;4.80;99.90;;;;;;10134498;28;20119;-60
2022/12/03 06:56:36;;;;;;;8.75;4.15;;;4.90;99.90;;;;;;10137447;28;20060;-61
2022/12/03 07:01:26;;;;;;;9.18;4.47;;;4.90;99.90;;;;;;10136489;28;20378;-61
2022/12/03 07:06:17;;;;;;;9.55;5.05;;;4.80;99.90;;;;;;10136536;28;20041;-61
2022/12/03 07:11:29;;;;;;;6.53;4.22;;;4.70;99.90;;;;;;10136656;28;20567;-58
2022/12/03 07:16:18;;;;;;;9.30;4.50;;;4.70;99.90;;;;;;10133131;28;20032;-58
2022/12/03 07:21:09;;;;;;;9.95;4.80;;;4.70;99.90;;;;;;10136922;28;20029;-59
2022/12/03 07:25:59;;;;;;;13.48;5.05;;;4.60;99.90;;;;;;10141575;28;20067;-60
2022/12/03 07:30:50;;;;;;;7.95;4.13;;;4.60;99.90;;;;;;10135734;28;20025;-61
2022/12/03 07:35:41;;;;;;;11.00;5.00;;;4.60;99.90;;;;;;10136458;28;20036;-62
2022/12/03 07:40:31;;;;;;;9.02;4.95;;;4.60;99.90;;;;;;10137820;28;20031;-61
2022/12/03 07:45:22;;;;;;;9.02;5.00;;;4.60;99.90;;;;;;10154965;28;20029;-60
2022/12/03 07:50:12;;;;;;;7.53;4.55;;;4.60;99.90;;;;;;10141598;28;20025;-62
2022/12/03 07:55:03;;;;;;;11.55;4.80;;;4.50;99.90;;;;;;10142917;28;20083;-59
2022/12/03 07:59:54;;;;;;;10.35;5.93;;;4.50;99.90;;;;;;10143591;28;20502;-60
2022/12/03 08:04:44;;;;;;;14.20;6.50;;;4.60;99.90;;;;;;10142676;28;20086;-60
2022/12/03 08:09:38;;;;;;;15.73;7.90;;;4.60;99.90;;;;;;10145270;28;20078;-62
2022/12/03 08:14:28;;;;;;;12.95;5.22;;;4.60;99.90;;;;;;10143377;28;20021;-61
2022/12/03 08:19:19;;;;;;;14.13;6.35;;;4.70;99.90;;;;;;10142031;28;20415;-60
2022/12/03 08:24:15;;;;;;;14.75;5.68;;;4.70;99.90;;;;;;10143416;28;20114;-60
2022/12/03 08:29:16;;;;;;;10.88;5.13;;;4.80;99.90;;;;;;10142538;28;20039;-62
2022/12/03 08:34:17;;;;;;;10.85;5.28;;;4.70;99.90;;;;;;10142563;28;20128;-61
2022/12/03 08:39:28;;;;;;;10.18;4.68;;;4.70;99.90;;;;;;10144624;28;20084;-60
2022/12/03 08:44:28;;;;;;;11.55;5.70;;;4.60;99.90;;;;;;10142320;28;20704;-60
2022/12/03 08:49:20;;;;;;;13.50;6.00;;;4.70;99.90;;;;;;10139240;28;20507;-61
2022/12/03 08:54:17;;;;;;;14.07;7.05;;;4.70;99.90;;;;;;10140740;28;20048;-60
2022/12/03 08:59:22;;;;;;;11.15;5.72;;;4.80;99.90;;;;;;10140880;28;20013;-61
2022/12/03 09:04:13;;;;;;;11.47;6.40;;;4.80;99.90;;;;;;10141045;28;20063;-61
2022/12/03 09:09:04;;;;;;;10.95;6.60;;;4.90;99.90;;;;;;10142996;28;20024;-60
2022/12/03 09:13:54;;;;;;;11.15;5.15;;;4.90;99.90;;;;;;10140759;28;20111;-61
2022/12/03 09:18:45;;;;;;;14.55;6.38;;;5.00;99.90;;;;;;10139969;28;20389;-61
2022/12/03 09:23:35;;;;;;;13.13;6.40;;;4.90;99.90;;;;;;10140414;28;20045;-59
2022/12/03 09:28:26;;;;;;;10.43;4.72;;;4.90;99.90;;;;;;10139935;28;20194;-62
2022/12/03 09:33:17;;;;;;;11.82;5.88;;;5.20;99.90;;;;;;10105700;28;20394;-59
2022/12/03 09:38:08;;;;;;;11.77;5.70;;;5.20;99.90;;;;;;10124456;28;20020;-62
2022/12/03 09:42:58;;;;;;;13.15;5.53;;;5.10;99.90;;;;;;10139544;28;20146;-59
2022/12/03 09:47:49;;;;;;;14.13;6.40;;;5.10;99.90;;;;;;10138795;28;20085;-62
2022/12/03 09:52:40;;;;;;;19.83;6.47;;;5.10;99.90;;;;;;10124306;28;20052;-61
2022/12/03 09:57:31;;;;;;;10.82;5.45;;;5.10;99.90;;;;;;10138708;28;20078;-62
2022/12/03 10:02:26;;;;;;;13.98;6.85;;;5.00;99.90;;;;;;10137662;28;20032;-62
2022/12/03 10:07:16;;;;;;;14.60;7.30;;;4.90;99.90;;;;;;10120392;28;20037;-62
2022/12/03 10:12:11;;;;;;;13.45;5.70;;;4.80;99.90;;;;;;10142302;28;20382;-60
2022/12/03 10:17:03;;;;;;;15.50;5.87;;;4.70;99.90;;;;;;10138970;28;20086;-61
2022/12/03 10:21:54;;;;;;;14.05;7.03;;;4.70;99.90;;;;;;10142680;28;20326;-61
2022/12/03 10:26:47;;;;;;;10.48;5.15;;;4.60;99.90;;;;;;10141285;28;20086;-60
2022/12/03 10:31:38;;;;;;;10.25;5.93;;;4.60;99.90;;;;;;10137263;28;20027;-61
2022/12/03 10:36:28;;;;;;;10.00;5.57;;;4.70;99.90;;;;;;10138882;28;20211;-59
2022/12/03 10:41:25;;;;;;;12.13;6.30;;;4.60;99.90;;;;;;10136877;28;20287;-59
2022/12/03 10:46:21;;;;;;;11.15;5.97;;;4.60;99.90;;;;;;10138973;28;20648;-59
2022/12/03 10:51:20;;;;;;;18.67;7.18;;;4.60;99.90;;;;;;10135496;28;20021;-59
2022/12/03 10:56:16;;;;;;;12.07;6.10;;;4.70;99.90;;;;;;10141123;28;20055;-61
2022/12/03 11:01:19;;;;;;;13.82;7.70;;;4.90;99.90;;;;;;10135408;28;20009;-59
2022/12/03 11:06:21;;;;;;;16.67;7.82;;;5.00;99.90;;;;;;10133836;28;20406;-58
2022/12/03 11:11:29;;;;;;;16.52;8.15;;;5.30;99.90;;;;;;10124601;28;20025;-59
2022/12/03 11:16:38;;;;;;;15.75;6.82;;;5.50;99.90;;;;;;10138930;28;20459;-59
2022/12/03 11:21:29;;;;;;;16.70;7.97;;;5.70;99.90;;;;;;10144157;28;20041;-60
2022/12/03 11:26:25;;;;;;;15.30;8.57;;;5.90;99.90;;;;;;10144410;28;20037;-60
2022/12/03 11:31:35;;;;;;;15.40;7.32;;;5.90;99.90;;;;;;10148160;28;20033;-60
2022/12/03 11:36:25;;;;;;;16.52;7.47;;;5.80;99.90;;;;;;10144262;28;20020;-60
2022/12/03 11:41:19;;;;;;;16.83;7.88;;;5.70;99.90;;;;;;10144762;28;20099;-59
2022/12/03 11:46:10;;;;;;;19.13;7.57;;;5.70;99.90;;;;;;10144012;28;20434;-59
2022/12/03 11:51:00;;;;;;;18.80;7.88;;;6.00;99.90;;;;;;10150495;28;20020;-59
2022/12/03 11:56:27;;;;;;;17.40;8.45;;;6.10;99.90;;;;;;10143675;28;20467;-59
2022/12/03 12:01:30;;;;;;;;;;;6.20;99.90;;;;;;10138046;28;20036;-59
2022/12/03 12:06:21;;;;;;;19.00;7.10;;;6.20;99.90;;;;;;10143182;28;19957;-60
2022/12/03 12:11:16;;;;;;;16.73;7.10;;;6.10;99.90;;;;;;10149381;28;20048;-60
2022/12/03 12:16:07;;;;;;;19.60;8.17;;;6.10;99.90;;;;;;10144954;28;20112;-59
2022/12/03 12:21:36;;;;;;;17.50;7.57;;;6.10;99.90;;;;;;10145017;28;20128;-59
2022/12/03 12:26:27;;;;;;;17.67;7.75;;;6.20;99.90;;;;;;10145703;28;20036;-59
2022/12/03 12:31:17;;;;;;;16.38;7.57;;;6.20;99.90;;;;;;10122088;28;20456;-59
2022/12/03 12:36:08;;;;;;;15.68;7.70;;;6.30;99.90;;;;;;10138752;28;20036;-59
2022/12/03 12:41:06;;;;;;;13.57;6.35;;;6.40;99.90;;;;;;10145920;28;20114;-60
2022/12/03 12:46:03;;;;;;;17.98;7.80;;;6.30;99.90;;;;;;10141996;28;20186;-59
2022/12/03 12:51:10;;;;;;;17.85;9.52;;;6.30;99.90;;;;;;10141655;28;20055;-59
2022/12/03 12:56:10;;;;;;;17.05;8.20;;;6.40;99.90;;;;;;10148920;28;20040;-59
2022/12/03 13:01:05;;;;;;;18.30;8.32;;;6.50;99.90;;;;;;10140999;28;20040;-59
2022/12/03 13:05:56;;;;;;;19.10;9.00;;;6.70;99.90;;;;;;10141632;28;20040;-60
2022/12/03 13:10:48;;;;;;;21.35;9.63;;;6.70;99.90;;;;;;10140037;28;20212;-60
2022/12/03 13:15:49;;;;;;;22.98;8.48;;;6.70;99.90;;;;;;10146087;28;20612;-59
2022/12/03 13:20:41;;;;;;;18.83;8.50;;;6.60;99.90;;;;;;10132876;28;20525;-59
2022/12/03 13:25:35;;;;;;;20.30;9.05;;;6.60;99.90;;;;;;10140557;28;20040;-62
2022/12/03 13:30:28;;;;;;;18.50;8.05;;;6.60;99.90;;;;;;10113613;28;20093;-60
2022/12/03 13:35:38;;;;;;;14.43;7.50;;;6.50;99.90;;;;;;10138888;28;20437;-59
2022/12/03 13:40:33;;;;;;;15.00;7.63;;;6.50;99.90;;;;;;10138751;28;20091;-59
2022/12/03 13:45:36;;;;;;;16.75;7.88;;;6.50;99.90;;;;;;10139290;28;20032;-59
2022/12/03 13:50:42;;;;;;;13.73;7.13;;;6.60;99.90;;;;;;10136170;28;20112;-59
2022/12/03 13:55:33;;;;;;;16.48;7.57;;;6.40;99.90;;;;;;10135729;28;20052;-59
2022/12/03 14:00:24;;;;;;;21.48;7.47;;;6.30;99.90;;;;;;10137526;28;20061;-59
2022/12/03 14:05:15;;;;;;;14.63;8.52;;;6.30;99.90;;;;;;10134444;28;20068;-60
2022/12/03 14:10:07;;;;;;;16.05;7.53;;;6.20;99.90;;;;;;10131644;28;20043;-58
2022/12/03 14:14:59;;;;;;;20.48;8.60;;;6.10;99.90;;;;;;10138281;28;20334;-59
2022/12/03 14:19:50;;;;;;;18.75;7.90;;;6.10;99.90;;;;;;10137369;28;20082;-58
2022/12/03 14:24:41;;;;;;;21.63;8.20;;;6.10;99.90;;;;;;10140769;28;20035;-60
2022/12/03 14:29:31;;;;;;;17.80;8.30;;;6.10;99.90;;;;;;10143826;28;20108;-60
2022/12/03 14:34:37;;;;;;;21.30;7.68;;;6.00;99.90;;;;;;10103128;28;20110;-59
2022/12/03 14:39:28;;;;;;;17.75;8.25;;;6.00;99.90;;;;;;10140925;28;20209;-60
2022/12/03 14:44:20;;;;;;;18.00;8.00;;;6.00;99.90;;;;;;10137192;28;20056;-59
2022/12/03 14:49:11;;;;;;;16.25;6.93;;;6.00;99.90;;;;;;10143436;28;20024;-61
2022/12/03 14:54:02;;;;;;;15.10;7.35;;;6.00;99.90;;;;;;10134704;28;20060;-59
2022/12/03 14:59:02;;;;;;;12.20;6.75;;;6.00;99.90;;;;;;10117820;28;20119;-60
2022/12/03 15:03:53;;;;;;;19.35;7.32;;;6.00;99.90;;;;;;10135761;28;20036;-59
2022/12/03 15:08:47;;;;;;;14.90;7.57;;;5.90;99.90;;;;;;10136931;28;20052;-60
2022/12/03 15:13:38;;;;;;;14.63;6.80;;;5.90;99.90;;;;;;10143235;28;20474;-60
2022/12/03 15:18:29;;;;;;;17.20;6.97;;;5.90;99.90;;;;;;10136932;28;20103;-60
2022/12/03 15:23:20;;;;;;;15.70;7.28;;;5.80;99.90;;;;;;10136480;28;20028;-59
2022/12/03 15:28:11;;;;;;;11.15;6.90;;;5.90;99.90;;;;;;10146016;28;20490;-61
2022/12/03 15:33:02;;;;;;;13.55;5.47;;;5.80;99.90;;;;;;10136634;28;20028;-59
2022/12/03 15:37:53;;;;;;;18.73;7.57;;;5.80;99.90;;;;;;10135965;28;20395;-59
2022/12/03 15:42:43;;;;;;;16.45;6.78;;;5.80;99.90;;;;;;10136317;28;20036;-61
2022/12/03 15:47:34;;;;;;;14.98;5.90;;;5.80;99.90;;;;;;10135988;28;20021;-61
2022/12/03 15:52:24;;;;;;;13.15;6.30;;;5.70;99.90;;;;;;10132774;28;20036;-61
2022/12/03 15:57:15;;;;;;;14.00;5.68;;;5.70;99.90;;;;;;10134433;28;20044;-60
2022/12/03 16:02:06;;;;;;;16.80;7.57;;;5.60;99.90;;;;;;10138614;28;20023;-61
2022/12/03 16:06:56;;;;;;;14.75;6.90;;;5.60;99.90;;;;;;10133145;28;20033;-61
2022/12/03 16:11:47;;;;;;;13.52;5.32;;;5.60;99.90;;;;;;10136434;28;20024;-62
2022/12/03 16:16:38;;;;;;;15.95;6.80;;;5.60;99.90;;;;;;10125605;28;20032;-62
2022/12/03 16:21:28;;;;;;;16.85;6.32;;;5.50;99.90;;;;;;10146805;28;20021;-61
2022/12/03 16:26:19;;;;;;;16.40;6.28;;;5.50;99.90;;;;;;10142772;28;20062;-61
2022/12/03 16:31:09;;;;;;;17.55;7.55;;;5.30;99.90;;;;;;10143283;28;20531;-62
2022/12/03 16:36:00;;;;;;;13.48;6.00;;;5.10;99.90;;;;;;10142948;28;20031;-62
2022/12/03 16:40:50;;;;;;;19.20;7.35;;;5.10;99.90;;;;;;10140900;28;20024;-60
2022/12/03 16:50:32;;;;;;;12.77;5.55;;;4.90;99.90;;;;;;10138666;28;20020;-60
2022/12/03 16:55:22;;;;;;;13.63;6.13;;;4.70;99.90;;;;;;10125917;28;20059;-60
2022/12/03 17:00:14;;;;;;;14.20;5.43;;;4.70;99.90;;;;;;10140844;28;20025;-63
2022/12/03 17:05:05;;;;;;;12.40;6.05;;;4.60;99.90;;;;;;10140812;28;20047;-59
2022/12/03 17:09:55;;;;;;;13.45;6.22;;;4.60;99.90;;;;;;10148194;28;20029;-60
2022/12/03 17:14:46;;;;;;;15.10;5.28;;;4.50;99.90;;;;;;10144010;28;20025;-59
2022/12/03 17:19:36;;;;;;;14.27;6.10;;;4.40;99.90;;;;;;10139816;28;20028;-60
2022/12/03 17:24:27;;;;;;;15.00;6.45;;;4.50;99.90;;;;;;10140570;28;20363;-61
2022/12/03 17:29:17;;;;;;;12.98;5.68;;;4.40;99.90;;;;;;10141863;28;20020;-61
2022/12/03 17:34:08;;;;;;;12.93;6.53;;;4.40;99.90;;;;;;10140834;28;20424;-60
2022/12/03 17:38:59;;;;;;;14.60;6.93;;;4.30;99.90;;;;;;10138805;28;20078;-61
2022/12/03 17:43:49;;;;;;;15.80;6.07;;;4.30;99.90;;;;;;10138867;28;20081;-59
2022/12/03 17:48:41;;;;;;;9.68;5.60;;;4.30;99.90;;;;;;10138091;28;20391;-61
2022/12/03 17:53:32;;;;;;;12.70;5.70;;;4.30;99.90;;;;;;10118008;28;20048;-60
2022/12/03 17:58:22;;;;;;;11.75;5.03;;;4.20;99.90;;;;;;10138226;28;20538;-59
2022/12/03 18:03:13;;;;;;;10.90;5.28;;;4.30;99.90;;;;;;10138249;28;20066;-60
2022/12/03 18:08:04;;;;;;;20.15;7.40;;;4.20;99.90;;;;;;10138586;28;20410;-60
2022/12/03 18:12:54;;;;;;;11.43;5.93;;;4.20;99.90;;;;;;10142559;28;20036;-60
2022/12/03 18:17:45;;;;;;;15.70;6.13;;;4.20;99.90;;;;;;10142659;28;20024;-60
2022/12/03 18:22:36;;;;;;;14.07;6.18;;;4.10;99.90;;;;;;10137783;28;20455;-60
2022/12/03 18:27:26;;;;;;;14.55;6.63;;;4.10;99.90;;;;;;10136848;28;20446;-62
2022/12/03 18:32:17;;;;;;;21.73;6.97;;;4.10;99.90;;;;;;10137197;28;20542;-62
2022/12/03 18:37:11;;;;;;;16.27;6.68;;;4.10;99.90;;;;;;10141255;28;20024;-60
2022/12/03 18:42:16;;;;;;;12.63;5.85;;;4.20;99.90;;;;;;10146355;28;20024;-59
2022/12/03 18:47:15;;;;;;;16.63;6.38;;;4.40;99.90;;;;;;10143347;28;20533;-62
2022/12/03 18:52:06;;;;;;;17.35;5.72;;;4.30;99.90;;;;;;10137323;28;20013;-60
2022/12/03 18:56:56;;;;;;;18.42;6.68;;;4.30;99.90;;;;;;10135850;28;20051;-62
2022/12/03 19:01:47;;;;;;;14.57;6.22;;;4.20;99.90;;;;;;10136914;28;20028;-62
2022/12/03 19:06:38;;;;;;;16.20;6.35;;;4.20;99.90;;;;;;10136017;28;20055;-61
2022/12/03 19:11:28;;;;;;;10.95;5.18;;;4.20;99.90;;;;;;10132076;28;20443;-61
2022/12/03 19:16:19;;;;;;;20.33;6.80;;;4.10;99.90;;;;;;10133848;28;20107;-61
2022/12/03 19:21:12;;;;;;;13.80;5.47;;;4.20;99.90;;;;;;10135724;28;20433;-60
2022/12/03 19:26:07;;;;;;;15.15;6.30;;;4.10;99.90;;;;;;10136098;28;20047;-61
2022/12/03 19:31:08;;;;;;;19.98;7.47;;;4.10;99.90;;;;;;10142923;28;20090;-61
2022/12/03 19:36:00;;;;;;;11.63;6.18;;;4.10;99.90;;;;;;10137259;28;20037;-61
2022/12/03 19:41:05;;;;;;;12.35;5.65;;;4.00;99.90;;;;;;10144597;28;20032;-60
2022/12/03 19:45:56;;;;;;;12.27;6.00;;;4.00;99.90;;;;;;10147513;28;20585;-60
2022/12/03 19:50:58;;;;;;;14.85;5.63;;;4.00;99.90;;;;;;10140309;28;20016;-61
2022/12/03 19:55:48;;;;;;;13.07;5.68;;;3.90;99.90;;;;;;10139644;28;20044;-61
2022/12/03 20:00:39;;;;;;;18.15;6.53;;;3.90;99.90;;;;;;10144948;28;20028;-62
2022/12/03 20:05:34;;;;;;;14.10;6.07;;;3.80;99.90;;;;;;10144349;28;20209;-61
2022/12/03 20:10:25;;;;;;;15.30;6.10;;;3.90;99.90;;;;;;10149562;28;20111;-62
2022/12/03 20:15:16;;;;;;;13.00;6.57;;;3.90;99.90;;;;;;10144739;28;20104;-61
2022/12/03 20:20:07;;;;;;;15.23;5.90;;;3.90;99.90;;;;;;10142227;28;20021;-60
2022/12/03 20:24:57;;;;;;;13.25;5.68;;;3.90;99.90;;;;;;10142761;28;20458;-62
2022/12/03 20:29:48;;;;;;;10.30;5.07;;;3.90;99.90;;;;;;10141530;28;20112;-64
2022/12/03 20:34:39;;;;;;;16.45;6.43;;;3.90;99.90;;;;;;10141872;28;20029;-61
2022/12/03 20:39:30;;;;;;;13.00;6.20;;;3.90;99.90;;;;;;10141663;28;20428;-59
2022/12/03 20:44:21;;;;;;;16.83;5.68;;;3.90;99.90;;;;;;10142123;28;20041;-58
2022/12/03 20:49:12;;;;;;;20.65;5.40;;;3.90;99.90;;;;;;10140196;28;20039;-59
2022/12/03 20:54:02;;;;;;;15.90;6.15;;;4.00;99.90;;;;;;10138419;28;20040;-60
2022/12/03 20:58:53;;;;;;;12.52;5.55;;;3.90;99.90;;;;;;10141034;28;20021;-61
2022/12/03 21:03:45;;;;;;;11.13;6.13;;;4.00;99.90;;;;;;10139784;28;20099;-59
2022/12/03 21:08:36;;;;;;;14.90;6.28;;;4.00;99.90;;;;;;10137628;28;20398;-63
2022/12/03 21:13:27;;;;;;;10.45;5.35;;;4.00;99.90;;;;;;10143478;28;20036;-61
2022/12/03 21:18:17;;;;;;;16.63;6.15;;;4.10;99.90;;;;;;10143565;28;20042;-61
2022/12/03 21:23:10;;;;;;;10.75;5.60;;;4.00;99.90;;;;;;10142017;28;20051;-59
2022/12/03 21:28:02;;;;;;;13.07;5.80;;;4.00;99.90;;;;;;10122544;28;20051;-61
2022/12/03 21:32:53;;;;;;;12.05;5.45;;;4.10;99.90;;;;;;10138871;28;20103;-64
2022/12/03 21:37:43;;;;;;;14.20;5.40;;;4.10;99.90;;;;;;10139976;28;20566;-63
2022/12/03 21:42:34;;;;;;;11.25;5.32;;;4.10;99.90;;;;;;10139588;28;20082;-62
2022/12/03 21:47:25;;;;;;;11.85;5.15;;;4.00;99.90;;;;;;10138333;28;20065;-61
2022/12/03 21:52:15;;;;;;;14.65;6.60;;;4.10;99.90;;;;;;10147438;28;20025;-61
2022/12/03 21:57:06;;;;;;;15.90;5.60;;;4.20;99.90;;;;;;10138353;28;20114;-62
2022/12/03 22:01:56;;;;;;;11.57;5.40;;;4.20;99.90;;;;;;10136977;28;20494;-61
2022/12/03 22:06:47;;;;;;;12.68;6.20;;;4.10;99.90;;;;;;10138632;28;20549;-58
2022/12/03 22:11:38;;;;;;;16.38;6.30;;;4.10;99.90;;;;;;10138042;28;20103;-60
2022/12/03 22:16:28;;;;;;;16.75;6.80;;;4.10;99.90;;;;;;10120546;28;20375;-61
2022/12/03 22:21:19;;;;;;;12.95;5.28;;;4.10;99.90;;;;;;10138845;28;20020;-60
2022/12/03 22:26:12;;;;;;;11.88;6.93;;;4.10;99.90;;;;;;10147108;28;20037;-59
2022/12/03 22:31:07;;;;;;;10.35;5.68;;;4.10;99.90;;;;;;10095690;28;20074;-59
2022/12/03 22:36:01;;;;;;;14.77;5.47;;;4.10;99.90;;;;;;10137203;28;20032;-60
2022/12/03 22:40:52;;;;;;;12.07;5.72;;;4.00;99.90;;;;;;10116804;28;20029;-60
2022/12/03 22:45:42;;;;;;;15.55;6.30;;;4.00;99.90;;;;;;10109038;28;20408;-60
2022/12/03 22:50:33;;;;;;;14.40;5.95;;;3.90;99.90;;;;;;10111491;28;20435;-60
2022/12/03 22:55:23;;;;;;;13.85;6.70;;;4.00;99.90;;;;;;10134041;28;20175;-59
2022/12/03 23:00:25;;;;;;;12.57;6.70;;;3.90;99.90;;;;;;10132577;28;20035;-59
2022/12/03 23:05:16;;;;;;;11.63;6.10;;;4.00;99.90;;;;;;10112558;28;20060;-60
2022/12/03 23:10:07;;;;;;;13.10;5.95;;;4.00;99.90;;;;;;10136691;28;20075;-60
2022/12/03 23:14:57;;;;;;;11.95;5.93;;;4.00;99.90;;;;;;10143940;28;20016;-59
2022/12/03 23:19:48;;;;;;;14.85;6.85;;;4.00;99.90;;;;;;10136372;28;20028;-59
2022/12/03 23:24:39;;;;;;;9.77;5.93;;;4.10;99.90;;;;;;10136313;28;20043;-59
2022/12/03 23:29:29;;;;;;;15.10;6.35;;;4.20;99.90;;;;;;10134453;28;20072;-59
2022/12/03 23:34:20;;;;;;;12.40;5.70;;;4.00;99.90;;;;;;10129286;28;20701;-59
2022/12/03 23:39:10;;;;;;;13.40;6.07;;;4.00;99.90;;;;;;10138693;28;20013;-58
2022/12/03 23:44:01;;;;;;;13.90;6.13;;;4.00;99.90;;;;;;10135881;28;20039;-59
2022/12/03 23:48:52;;;;;;;11.98;5.55;;;4.00;99.90;;;;;;10117786;28;20521;-61
2022/12/03 23:53:43;;;;;;;11.98;4.88;;;3.90;99.90;;;;;;10134745;28;20389;-59
2022/12/03 23:58:34;;;;;;;14.02;6.63;;;4.00;99.90;;;;;;10135663;28;20033;-59
